Time;durP1;ratioP1;P1;durP2;ratioP2;P2;SDS_P1;SDS_P2;PMS_P1;PMS_P2;Temp;Humidity;BMP_temperature;BMP_pressure;BME280_temperature;BME280_humidity;BME280_pressure;Samples;Min_cycle;Max_cycle;Signal;HPM_P1;HPM_P2
2023/08/10 00:01:44;;;;;;;12.13;2.10;;;;;;;13.27;69.19;100818.25;10129997;29;20436;-77
2023/08/10 00:06:47;;;;;;;8.80;2.50;;;;;;;13.17;69.89;100814.63;10134409;29;20058;-77
2023/08/10 00:11:50;;;;;;;5.65;2.67;;;;;;;13.11;70.33;100819.66;10135402;29;20051;-77
2023/08/10 00:16:55;;;;;;;5.47;2.25;;;;;;;13.19;70.22;100818.06;10134100;28;20052;-77
2023/08/10 00:21:58;;;;;;;7.80;2.20;;;;;;;13.29;69.90;100826.19;10126219;28;20044;-77
2023/08/10 00:27:01;;;;;;;4.40;2.30;;;;;;;13.35;69.76;100828.34;10121169;29;20733;-77
2023/08/10 00:32:05;;;;;;;5.60;2.60;;;;;;;13.30;69.22;100843.22;10134247;29;20049;-77
2023/08/10 00:37:08;;;;;;;4.95;2.30;;;;;;;13.19;69.50;100836.06;10130098;29;20052;-77
2023/08/10 00:42:12;;;;;;;4.70;2.17;;;;;;;13.12;69.49;100841.13;10136745;28;20092;-77
2023/08/10 00:47:16;;;;;;;7.75;2.08;;;;;;;13.16;69.99;100836.31;10122975;28;20044;-77
2023/08/10 00:52:19;;;;;;;6.90;2.40;;;;;;;13.16;69.65;100845.25;10133075;29;20135;-77
2023/08/10 00:57:23;;;;;;;3.53;2.15;;;;;;;12.96;70.13;100848.78;10135590;29;20180;-76
2023/08/10 01:02:28;;;;;;;8.15;2.22;;;;;;;12.89;70.93;100845.78;10153203;29;20550;-76
2023/08/10 01:07:49;;;;;;;7.85;2.80;;;;;;;12.97;70.37;100842.41;10142850;29;20052;-77
2023/08/10 01:12:58;;;;;;;7.30;2.58;;;;;;;12.86;70.51;100848.69;10125807;28;20052;-77
2023/08/10 01:18:09;;;;;;;8.13;2.80;;;;;;;12.78;70.62;100854.75;10121280;29;20079;-77
2023/08/10 01:23:20;;;;;;;3.63;2.05;;;;;;;12.75;70.39;100855.00;10128718;29;20435;-76
2023/08/10 01:28:25;;;;;;;5.72;2.65;;;;;;;12.72;71.09;100857.06;10128032;29;20063;-76
2023/08/10 01:33:29;;;;;;;8.23;3.08;;;;;;;12.72;71.30;100857.06;10129746;29;20144;-77
2023/08/10 01:38:32;;;;;;;7.45;2.70;;;;;;;12.72;71.30;100857.91;10126392;28;20044;-76
2023/08/10 01:43:36;;;;;;;6.22;2.70;;;;;;;12.67;71.23;100854.78;10122085;28;20048;-76
2023/08/10 01:48:41;;;;;;;9.10;3.47;;;;;;;12.57;71.23;100860.06;10128652;28;20059;-76
2023/08/10 01:53:49;;;;;;;6.97;2.70;;;;;;;12.46;71.73;100859.22;10121646;29;20147;-77
2023/08/10 01:58:53;;;;;;;6.22;2.20;;;;;;;12.38;71.63;100874.16;10119547;29;20052;-77
2023/08/10 02:03:57;;;;;;;4.97;2.53;;;;;;;12.33;71.71;100871.00;10118441;28;20511;-76
2023/08/10 02:09:00;;;;;;;3.50;2.05;;;;;;;12.33;71.94;100862.91;10126317;28;20059;-77
2023/08/10 02:14:04;;;;;;;5.07;2.70;;;;;;;12.37;71.83;100868.94;10136130;29;20047;-77
2023/08/10 02:19:07;;;;;;;4.63;2.70;;;;;;;12.38;71.34;100876.00;10129637;29;20613;-77
2023/08/10 02:24:11;;;;;;;5.43;2.90;;;;;;;12.29;71.63;100876.78;10130697;29;20572;-77
2023/08/10 02:29:15;;;;;;;3.03;2.42;;;;;;;12.26;71.96;100877.84;10120850;29;20055;-76
2023/08/10 02:34:18;;;;;;;6.47;2.70;;;;;;;12.18;71.66;100869.50;10129679;28;20103;-77
2023/08/10 02:39:21;;;;;;;7.43;2.65;;;;;;;12.09;72.12;100876.47;10127155;28;20052;-76
2023/08/10 02:44:25;;;;;;;5.45;2.90;;;;;;;12.00;72.54;100871.81;10127317;29;20056;-76
2023/08/10 02:49:28;;;;;;;8.85;3.22;;;;;;;11.92;72.91;100882.34;10122953;29;20159;-76
2023/08/10 02:54:31;;;;;;;5.00;2.63;;;;;;;11.83;74.16;100877.69;10128444;29;20052;-77
2023/08/10 02:59:36;;;;;;;7.30;2.70;;;;;;;11.86;74.04;100878.31;10124575;29;20145;-77
2023/08/10 03:04:38;;;;;;;9.75;2.90;;;;;;;11.81;74.29;100885.03;10127483;28;20048;-76
2023/08/10 03:09:42;;;;;;;3.78;2.72;;;;;;;12.00;74.57;100890.69;10119483;29;20463;-76
2023/08/10 03:14:50;;;;;;;7.22;3.20;;;;;;;12.09;74.42;100889.09;10128909;29;20082;-77
2023/08/10 03:19:53;;;;;;;7.47;2.60;;;;;;;12.14;74.15;100878.81;10132344;29;20061;-77
2023/08/10 03:24:57;;;;;;;5.15;3.08;;;;;;;12.22;73.26;100876.34;10139221;29;20068;-77
2023/08/10 03:30:02;;;;;;;4.90;2.80;;;;;;;12.25;72.90;100880.63;10128842;28;20143;-77
2023/08/10 03:35:09;;;;;;;5.38;2.85;;;;;;;12.28;72.67;100878.59;10125392;29;20048;-76
2023/08/10 03:40:13;;;;;;;6.45;3.05;;;;;;;12.26;72.36;100885.03;10132014;29;20522;-76
2023/08/10 03:45:18;;;;;;;6.90;2.88;;;;;;;12.16;72.16;100887.63;10130000;29;20058;-76
2023/08/10 03:50:21;;;;;;;6.03;2.80;;;;;;;12.06;72.34;100911.72;10135380;29;20137;-77
2023/08/10 03:55:24;;;;;;;5.07;3.17;;;;;;;11.99;72.46;100909.66;10135815;28;20047;-77
2023/08/10 04:00:28;;;;;;;9.40;3.13;;;;;;;11.90;72.28;100906.72;10136729;28;20074;-77
2023/08/10 04:05:33;;;;;;;8.77;3.25;;;;;;;11.84;72.58;100909.00;10131480;29;20175;-77
2023/08/10 04:10:36;;;;;;;5.90;2.88;;;;;;;11.75;72.97;100921.34;10129859;29;20435;-76
2023/08/10 04:15:41;;;;;;;10.30;2.90;;;;;;;11.67;74.37;100915.72;10129070;29;20044;-77
2023/08/10 04:20:44;;;;;;;8.52;2.92;;;;;;;11.72;74.32;100926.97;10131211;29;20051;-77
2023/08/10 04:25:47;;;;;;;9.85;2.97;;;;;;;11.72;74.24;100933.22;10123833;28;20055;-77
2023/08/10 04:30:51;;;;;;;7.07;3.10;;;;;;;11.70;74.40;100937.84;10128836;29;20064;-76
2023/08/10 04:35:54;;;;;;;7.13;2.85;;;;;;;11.76;74.17;100931.13;10125462;29;20047;-77
2023/08/10 04:40:57;;;;;;;6.43;3.65;;;;;;;11.70;73.92;100939.69;10123513;29;20061;-77
2023/08/10 04:46:01;;;;;;;6.72;3.17;;;;;;;11.70;74.40;100937.84;10120131;29;20059;-77
2023/08/10 04:51:05;;;;;;;6.25;3.55;;;;;;;11.80;74.10;100932.63;10126509;29;20056;-76
2023/08/10 04:56:08;;;;;;;10.38;3.58;;;;;;;11.88;74.14;100940.13;10123508;28;20477;-77
2023/08/10 05:01:13;;;;;;;8.48;3.10;;;;;;;12.00;73.92;100938.28;10124862;29;20124;-77
2023/08/10 05:06:17;;;;;;;7.38;3.50;;;;;;;11.92;73.94;100942.41;10123608;29;20064;-77
2023/08/10 05:11:20;;;;;;;7.55;3.20;;;;;;;12.03;74.38;100949.66;10125418;29;20239;-76
2023/08/10 05:16:24;;;;;;;8.07;3.60;;;;;;;12.13;74.22;100953.34;10122972;29;20512;-77
2023/08/10 05:21:27;;;;;;;12.07;3.55;;;;;;;12.29;74.28;100955.75;10118085;28;20116;-76
2023/08/10 05:26:30;;;;;;;8.73;3.80;;;;;;;12.42;73.83;100955.59;10117631;29;20048;-77
2023/08/10 05:31:34;;;;;;;8.85;3.80;;;;;;;12.46;73.75;100961.63;10117478;29;20095;-76
2023/08/10 05:36:37;;;;;;;10.57;3.90;;;;;;;12.64;74.05;100967.34;10112920;29;21275;-77
2023/08/10 05:41:40;;;;;;;12.25;4.45;;;;;;;12.72;74.02;100954.13;10115765;29;20130;-77
2023/08/10 05:46:44;;;;;;;10.45;2.95;;;;;;;12.71;74.83;100952.41;10118308;29;20079;-77
2023/08/10 05:51:47;;;;;;;7.78;4.50;;;;;;;12.69;75.52;100955.22;10121488;29;20055;-77
2023/08/10 05:56:49;;;;;;;8.15;3.47;;;;;;;12.97;75.56;100951.16;10115114;29;20059;-78
2023/08/10 06:01:55;;;;;;;10.98;3.47;;;;;;;13.13;74.93;100953.41;10116788;29;20045;-77
2023/08/10 06:06:58;;;;;;;8.60;3.53;;;;;;;13.32;74.25;100951.88;10123776;29;20052;-78
2023/08/10 06:12:01;;;;;;;10.25;1.90;;;;;;;13.66;73.92;100958.91;10125846;29;20059;-78
2023/08/10 06:17:06;;;;;;;15.00;2.42;;;;;;;13.82;71.79;100963.84;10127975;28;20132;-78
2023/08/10 06:22:09;;;;;;;6.60;2.95;;;;;;;14.10;71.67;100956.91;10130924;28;20526;-78
2023/08/10 06:27:12;;;;;;;4.57;2.35;;;;;;;14.38;70.63;100963.47;10135720;28;20048;-77
2023/08/10 06:32:16;;;;;;;7.35;2.67;;;;;;;14.56;69.02;100966.41;10135748;29;20048;-78
2023/08/10 06:37:19;;;;;;;7.82;2.38;;;;;;;14.45;68.74;100980.00;10138114;29;20060;-77
2023/08/10 06:42:22;;;;;;;8.70;2.85;;;;;;;14.71;68.64;100974.16;10136048;29;20056;-77
2023/08/10 06:47:35;;;;;;;6.97;2.80;;;;;;;14.88;68.67;100983.44;10136538;29;20055;-77
2023/08/10 06:52:37;;;;;;;7.82;2.83;;;;;;;14.92;67.74;100977.63;10135844;29;20531;-77
2023/08/10 06:57:41;;;;;;;10.57;3.00;;;;;;;14.87;68.10;100984.44;10141830;29;20523;-77
2023/08/10 07:02:50;;;;;;;10.18;3.72;;;;;;;15.46;68.33;100991.69;10141209;29;20052;-77
2023/08/10 07:07:53;;;;;;;9.23;3.05;;;;;;;15.47;66.69;100983.44;10157122;29;20059;-77
2023/08/10 07:12:56;;;;;;;8.23;3.50;;;;;;;15.79;67.14;100981.44;10187853;28;20064;-77
2023/08/10 07:18:00;;;;;;;11.05;3.30;;;;;;;16.18;64.72;100986.78;10162782;28;20051;-77
2023/08/10 07:23:07;;;;;;;6.97;2.50;;;;;;;16.24;65.34;100978.94;10143511;29;21490;-78
2023/08/10 07:28:10;;;;;;;7.82;2.75;;;;;;;16.06;63.95;100978.81;10140836;29;20701;-78
2023/08/10 07:33:14;;;;;;;9.55;2.55;;;;;;;16.14;64.95;100973.53;10136373;29;20052;-78
2023/08/10 07:38:17;;;;;;;9.55;2.53;;;;;;;16.98;61.36;100983.50;10142333;28;20504;-76
2023/08/10 07:43:20;;;;;;;3.38;1.83;;;;;;;16.30;60.87;100993.78;10137433;28;20063;-76
2023/08/10 07:48:24;;;;;;;6.22;1.20;;;;;;;16.54;59.38;101004.13;10136452;29;20056;-76
2023/08/10 07:53:28;;;;;;;6.85;1.95;;;;;;;17.43;56.36;100988.06;10139217;29;20047;-76
2023/08/10 07:58:31;;;;;;;4.53;1.10;;;;;;;18.23;54.28;100989.94;10138997;29;20055;-76
2023/08/10 08:03:35;;;;;;;6.68;1.40;;;;;;;17.35;56.50;100988.00;10133611;28;20043;-75
2023/08/10 08:08:38;;;;;;;6.95;1.65;;;;;;;18.07;55.67;100982.53;10133237;28;20075;-76
2023/08/10 08:13:41;;;;;;;6.90;1.85;;;;;;;18.26;52.08;100990.47;10127028;28;20067;-77
2023/08/10 08:18:47;;;;;;;5.28;1.58;;;;;;;19.41;51.63;100978.22;10132806;29;20523;-76
2023/08/10 08:23:51;;;;;;;3.50;1.67;;;;;;;18.54;52.88;100983.00;10118911;29;20056;-76
2023/08/10 08:28:54;;;;;;;5.38;1.60;;;;;;;17.37;55.47;100996.84;10130764;29;20737;-76
2023/08/10 08:33:58;;;;;;;7.60;1.63;;;;;;;17.21;54.59;100993.97;10127256;29;20052;-76
2023/08/10 08:39:01;;;;;;;5.93;1.10;;;;;;;17.78;52.07;100997.25;10130819;28;20056;-76
2023/08/10 08:44:06;;;;;;;3.75;1.17;;;;;;;18.96;49.23;100984.91;10130464;29;20055;-76
2023/08/10 08:49:11;;;;;;;4.60;1.63;;;;;;;20.07;49.30;100980.97;10130131;29;20040;-76
2023/08/10 08:54:15;;;;;;;3.05;1.20;;;;;;;19.65;47.84;100974.69;10127796;29;20052;-76
2023/08/10 08:59:18;;;;;;;3.63;1.13;;;;;;;17.46;52.44;100992.34;10126786;29;20060;-76
2023/08/10 09:04:22;;;;;;;3.28;1.08;;;;;;;17.81;50.90;100994.19;10130344;28;20059;-76
2023/08/10 09:09:26;;;;;;;1.58;1.25;;;;;;;18.71;46.39;100983.94;10124174;28;20420;-76
2023/08/10 09:14:29;;;;;;;4.57;1.20;;;;;;;19.67;47.36;100980.84;10128152;29;20052;-76
2023/08/10 09:19:38;;;;;;;5.93;1.30;;;;;;;18.90;49.35;100993.75;10130114;29;20060;-76
2023/08/10 09:24:46;;;;;;;2.65;1.25;;;;;;;19.12;47.74;100983.28;10127817;29;20056;-76
2023/08/10 09:29:49;;;;;;;2.53;1.15;;;;;;;20.75;44.33;100982.38;10124026;28;20057;-76
2023/08/10 09:34:53;;;;;;;2.00;1.00;;;;;;;20.68;43.32;100978.63;10126002;28;20071;-76
2023/08/10 09:39:58;;;;;;;3.47;1.00;;;;;;;20.47;43.26;100973.78;10121534;28;20056;-76
2023/08/10 09:45:06;;;;;;;3.67;1.00;;;;;;;21.05;43.44;100983.47;10122445;29;20431;-77
2023/08/10 09:50:12;;;;;;;4.40;1.10;;;;;;;21.04;43.67;100981.78;10120884;29;20058;-77
2023/08/10 09:55:15;;;;;;;2.58;0.80;;;;;;;21.85;44.24;100984.97;10124662;29;21339;-77
2023/08/10 10:00:20;;;;;;;3.63;1.35;;;;;;;23.06;42.11;100974.75;10122545;28;20066;-77
2023/08/10 10:05:26;;;;;;;4.88;1.20;;;;;;;23.35;40.80;100977.47;10121402;28;20048;-77
2023/08/10 10:10:33;;;;;;;7.82;1.60;;;;;;;22.02;42.48;100985.69;10123093;29;20739;-76
2023/08/10 10:15:37;;;;;;;5.05;1.23;;;;;;;21.36;42.93;100980.69;10125411;29;20431;-77
2023/08/10 10:20:45;;;;;;;5.57;1.38;;;;;;;21.32;42.79;100976.66;10123191;29;20715;-76
2023/08/10 10:25:57;;;;;;;4.38;1.23;;;;;;;22.08;42.96;100968.56;10127418;28;20060;-77
2023/08/10 10:31:09;;;;;;;3.75;1.90;;;;;;;23.12;39.62;100961.19;10126321;28;20187;-76
2023/08/10 10:36:18;;;;;;;3.60;1.30;;;;;;;22.91;39.63;100963.84;10125797;29;20046;-77
2023/08/10 10:41:31;;;;;;;4.53;1.13;;;;;;;21.04;42.09;100968.13;10130325;29;20059;-77
2023/08/10 10:46:38;;;;;;;5.05;1.48;;;;;;;22.96;42.31;100953.19;10127337;29;20049;-77
2023/08/10 10:51:51;;;;;;;2.90;1.38;;;;;;;23.05;39.01;100962.97;10119062;28;21230;-77
2023/08/10 10:56:55;;;;;;;4.68;1.40;;;;;;;23.74;39.42;100947.88;10117842;28;20083;-76
2023/08/10 11:01:58;;;;;;;4.00;1.10;;;;;;;25.21;37.37;100947.75;10117838;28;21178;-76
2023/08/10 11:07:03;;;;;;;8.85;1.75;;;;;;;23.93;37.11;100947.22;10124055;28;20512;-76
2023/08/10 11:12:07;;;;;;;2.38;1.30;;;;;;;22.57;38.35;100948.84;10127939;28;20056;-76
2023/08/10 11:17:10;;;;;;;4.03;1.10;;;;;;;21.46;40.28;100942.22;10126434;29;20444;-77
2023/08/10 11:22:17;;;;;;;4.00;1.30;;;;;;;22.48;39.13;100939.91;10127311;28;20052;-76
2023/08/10 11:27:20;;;;;;;2.97;1.08;;;;;;;23.28;38.00;100931.84;10131331;28;20139;-77
2023/08/10 11:32:23;;;;;;;4.22;1.20;;;;;;;23.76;37.92;100927.47;10131800;29;20048;-76
2023/08/10 11:37:31;;;;;;;2.72;1.20;;;;;;;24.88;35.85;100925.63;10136670;28;20845;-77
2023/08/10 11:42:38;;;;;;;6.97;1.10;;;;;;;24.60;35.81;100918.34;10135107;29;20118;-77
2023/08/10 11:47:43;;;;;;;3.42;1.08;;;;;;;24.79;35.50;100924.94;10129305;28;20052;-77
2023/08/10 11:52:50;;;;;;;3.17;0.85;;;;;;;25.12;35.49;100922.38;10127143;28;20059;-77
2023/08/10 11:57:57;;;;;;;3.15;0.98;;;;;;;24.24;36.69;100924.00;10127617;29;20164;-77
2023/08/10 12:03:03;;;;;;;2.30;0.95;;;;;;;24.50;35.73;100918.72;10134782;29;20083;-77
2023/08/10 12:08:09;;;;;;;3.88;1.15;;;;;;;24.57;36.95;100910.47;10141420;29;20055;-77
2023/08/10 12:13:16;;;;;;;1.52;0.82;;;;;;;23.90;36.99;100916.63;10125479;29;20074;-77
2023/08/10 12:18:21;;;;;;;3.15;1.00;;;;;;;24.66;35.45;100923.00;10133168;28;20053;-77
2023/08/10 12:23:26;;;;;;;3.22;1.00;;;;;;;25.33;35.86;100907.56;10134033;28;20143;-77
2023/08/10 12:28:29;;;;;;;4.50;1.00;;;;;;;25.11;34.69;100906.06;10134428;29;20531;-77
2023/08/10 12:33:31;;;;;;;3.33;1.20;;;;;;;23.79;36.94;100913.34;10131412;29;20052;-77
2023/08/10 12:38:36;;;;;;;5.47;1.33;;;;;;;24.58;35.47;100903.13;10132932;29;20048;-78
2023/08/10 12:43:39;;;;;;;5.18;1.23;;;;;;;23.81;36.62;100905.78;10138440;28;20052;-77
2023/08/10 12:48:41;;;;;;;9.43;1.73;;;;;;;23.97;36.87;100901.03;10137843;28;20077;-77
2023/08/10 12:53:47;;;;;;;2.45;0.98;;;;;;;24.75;35.25;100898.97;10135579;29;20071;-77
2023/08/10 12:58:50;;;;;;;3.60;0.77;;;;;;;25.84;34.11;100887.75;10134001;29;20063;-77
2023/08/10 13:03:53;;;;;;;4.28;1.00;;;;;;;27.34;33.37;100881.22;10129385;29;20061;-77
2023/08/10 13:08:58;;;;;;;3.60;1.33;;;;;;;26.90;31.77;100883.00;10170638;29;20052;-77
2023/08/10 13:14:01;;;;;;;3.92;1.25;;;;;;;25.87;33.93;100880.97;10170867;28;20044;-78
2023/08/10 13:19:04;;;;;;;2.15;1.02;;;;;;;26.89;32.93;100876.63;10135425;28;20076;-77
2023/08/10 13:24:08;;;;;;;4.05;1.25;;;;;;;27.61;33.96;100882.72;10125219;29;20039;-77
2023/08/10 13:29:11;;;;;;;2.50;0.90;;;;;;;28.80;32.75;100868.72;10126521;29;20048;-77
2023/08/10 13:34:14;;;;;;;3.92;1.10;;;;;;;26.69;33.27;100867.59;10125754;29;20075;-77
2023/08/10 13:39:18;;;;;;;3.08;1.10;;;;;;;26.23;35.55;100874.97;10125348;28;20055;-77
2023/08/10 13:44:21;;;;;;;2.03;1.02;;;;;;;28.26;33.49;100871.28;10129634;29;20063;-77
2023/08/10 13:49:24;;;;;;;5.10;1.50;;;;;;;29.37;30.90;100871.94;10132950;28;20059;-77
2023/08/10 13:54:29;;;;;;;2.10;1.02;;;;;;;28.10;31.70;100882.09;10132871;29;20134;-78
2023/08/10 13:59:34;;;;;;;3.00;1.15;;;;;;;27.63;32.31;100874.22;10139133;29;20044;-77
2023/08/10 14:04:37;;;;;;;4.60;1.30;;;;;;;27.27;33.33;100874.91;10139425;28;21194;-77
2023/08/10 14:09:41;;;;;;;5.45;1.17;;;;;;;26.77;34.04;100867.34;10134323;28;20056;-77
2023/08/10 14:14:44;;;;;;;1.23;1.05;;;;;;;26.29;35.48;100867.75;10140316;29;20047;-76
2023/08/10 14:19:47;;;;;;;6.68;1.58;;;;;;;26.31;35.85;100867.56;10127891;29;20048;-77
2023/08/10 14:24:52;;;;;;;3.10;1.25;;;;;;;25.84;37.06;100871.22;10125498;29;20055;-76
2023/08/10 14:29:55;;;;;;;3.63;1.48;;;;;;;25.57;36.52;100872.28;10124611;29;20058;-78
2023/08/10 14:34:58;;;;;;;4.50;1.00;;;;;;;24.83;37.18;100881.44;10125233;28;20054;-77
2023/08/10 14:40:02;;;;;;;6.05;1.27;;;;;;;24.17;37.88;100885.56;10117233;29;20063;-77
2023/08/10 14:45:07;;;;;;;4.80;1.20;;;;;;;24.47;39.13;100879.84;10124107;29;20476;-77
2023/08/10 14:50:10;;;;;;;3.30;1.50;;;;;;;24.45;39.42;100881.94;10124063;29;20060;-77
2023/08/10 14:55:15;;;;;;;4.30;1.20;;;;;;;24.16;40.51;100888.50;10118253;29;20456;-77
2023/08/10 15:00:25;;;;;;;5.95;1.40;;;;;;;24.04;39.72;100885.47;10117336;28;20052;-77
2023/08/10 15:05:28;;;;;;;4.35;1.65;;;;;;;23.81;41.79;100885.75;10127582;29;20429;-77
2023/08/10 15:10:32;;;;;;;4.00;1.30;;;;;;;23.23;40.64;100891.34;10132174;29;20070;-77
2023/08/10 15:15:35;;;;;;;5.25;1.27;;;;;;;22.64;42.08;100889.56;10131909;29;20055;-78
2023/08/10 15:20:38;;;;;;;4.68;1.40;;;;;;;22.94;42.04;100893.09;10131020;29;20127;-77
2023/08/10 15:25:43;;;;;;;3.65;1.10;;;;;;;23.43;40.97;100894.25;10134145;29;20057;-77
2023/08/10 15:30:46;;;;;;;1.30;1.10;;;;;;;23.44;41.76;100899.53;10134923;28;20056;-77
2023/08/10 15:35:49;;;;;;;3.83;1.30;;;;;;;23.76;40.89;100893.69;10134349;28;20135;-77
2023/08/10 15:40:55;;;;;;;5.18;1.40;;;;;;;23.02;41.96;100902.25;10133728;28;20059;-77
2023/08/10 15:45:58;;;;;;;4.85;1.63;;;;;;;22.90;41.16;100899.13;10139047;29;21259;-77
2023/08/10 15:51:01;;;;;;;2.08;1.00;;;;;;;23.23;41.73;100899.56;10140471;29;21060;-78
2023/08/10 15:56:05;;;;;;;4.82;1.83;;;;;;;22.84;42.42;100897.19;10133848;28;21201;-77
2023/08/10 16:01:08;;;;;;;2.10;1.27;;;;;;;22.73;42.54;100895.78;10127381;29;20052;-78
2023/08/10 16:06:11;;;;;;;4.80;1.50;;;;;;;22.83;42.82;100898.22;10126272;29;20053;-77
2023/08/10 16:11:17;;;;;;;6.07;1.20;;;;;;;22.87;42.71;100894.06;10129473;29;20471;-77
2023/08/10 16:16:20;;;;;;;3.22;1.25;;;;;;;23.09;42.37;100894.94;10125902;29;20423;-77
2023/08/10 16:21:23;;;;;;;4.45;1.75;;;;;;;22.58;42.38;100898.56;10131509;29;20044;-78
2023/08/10 16:26:28;;;;;;;2.40;1.30;;;;;;;22.55;43.65;100912.63;10133829;29;20059;-77
2023/08/10 16:31:31;;;;;;;3.63;1.48;;;;;;;22.51;44.48;100912.16;10136344;28;20052;-77
2023/08/10 16:36:34;;;;;;;5.30;1.35;;;;;;;22.50;45.59;100910.47;10137389;29;20576;-77
2023/08/10 16:41:38;;;;;;;3.85;1.50;;;;;;;22.39;46.05;100918.28;10140802;29;20048;-77
2023/08/10 16:46:41;;;;;;;5.00;1.80;;;;;;;22.30;45.89;100912.91;10142294;29;20439;-78
2023/08/10 16:51:44;;;;;;;4.55;1.60;;;;;;;21.76;47.44;100921.31;10143523;29;20058;-77
2023/08/10 16:56:48;;;;;;;6.75;1.73;;;;;;;21.40;48.26;100918.38;10139680;29;20048;-77
2023/08/10 17:01:51;;;;;;;6.47;1.63;;;;;;;20.57;51.61;100925.31;10126718;29;21608;-77
2023/08/10 17:06:56;;;;;;;4.32;1.88;;;;;;;21.14;50.50;100921.44;10131666;29;20064;-78
2023/08/10 17:12:00;;;;;;;5.10;2.40;;;;;;;21.16;50.21;100924.84;10131820;29;20052;-77
2023/08/10 17:17:04;;;;;;;5.93;1.67;;;;;;;20.77;51.42;100923.84;10134752;28;20475;-77
2023/08/10 17:22:07;;;;;;;4.55;2.00;;;;;;;21.08;50.89;100933.09;10135415;29;21200;-78
2023/08/10 17:27:12;;;;;;;7.20;2.38;;;;;;;21.04;50.09;100921.69;10135247;29;20056;-78
2023/08/10 17:32:16;;;;;;;5.38;1.70;;;;;;;21.01;50.53;100919.28;10136526;29;20055;-77
2023/08/10 17:37:21;;;;;;;6.80;2.42;;;;;;;21.17;50.91;100916.47;10137473;29;20055;-78
2023/08/10 17:42:25;;;;;;;5.40;1.80;;;;;;;20.84;50.85;100910.31;10134507;28;20052;-78
2023/08/10 17:47:29;;;;;;;4.88;2.08;;;;;;;20.62;51.45;100906.50;10137261;29;20500;-78
2023/08/10 17:52:33;;;;;;;6.97;2.55;;;;;;;20.80;52.29;100911.72;10141091;29;20051;-78
2023/08/10 17:57:37;;;;;;;11.40;2.55;;;;;;;20.79;52.23;100919.06;10139995;29;20060;-77
2023/08/10 18:02:43;;;;;;;3.33;2.30;;;;;;;20.59;52.19;100922.41;10129601;29;20172;-77
2023/08/10 18:07:46;;;;;;;3.17;2.50;;;;;;;20.53;52.90;100916.59;10128588;28;20060;-79
2023/08/10 18:12:50;;;;;;;5.80;2.25;;;;;;;20.44;52.89;100920.41;10136138;28;20119;-78
2023/08/10 18:17:53;;;;;;;2.28;1.90;;;;;;;20.41;53.07;100926.22;10167662;29;20048;-80
2023/08/10 18:22:56;;;;;;;3.67;2.30;;;;;;;19.96;53.98;100932.25;10173049;29;20074;-78
2023/08/10 18:28:00;;;;;;;3.97;1.92;;;;;;;20.17;53.40;100921.66;10168793;29;20040;-79
2023/08/10 18:33:04;;;;;;;4.13;2.03;;;;;;;20.29;54.21;100928.41;10176795;29;20457;-79
2023/08/10 18:38:07;;;;;;;2.72;2.10;;;;;;;20.31;54.21;100922.84;10163097;29;20497;-78
2023/08/10 18:43:12;;;;;;;3.58;1.92;;;;;;;20.27;54.51;100922.31;10165367;29;20472;-78
2023/08/10 18:48:15;;;;;;;4.07;2.10;;;;;;;20.23;55.21;100922.81;10201469;29;20096;-79
2023/08/10 18:53:18;;;;;;;2.90;1.90;;;;;;;20.20;55.16;100924.03;10218494;29;20040;-79
2023/08/10 18:58:23;;;;;;;4.07;2.35;;;;;;;20.16;55.52;100919.97;10187590;29;20083;-78
2023/08/10 19:03:26;;;;;;;3.38;1.90;;;;;;;20.04;56.33;100911.28;10185133;29;20044;-80
2023/08/10 19:08:29;;;;;;;5.00;2.40;;;;;;;20.03;57.14;100920.50;10183264;29;20044;-79
2023/08/10 19:13:36;;;;;;;7.20;2.28;;;;;;;19.68;57.49;100924.44;10171750;29;20048;-77
2023/08/10 19:18:38;;;;;;;2.75;2.03;;;;;;;19.64;58.54;100925.81;10177973;29;20052;-77
2023/08/10 19:23:42;;;;;;;3.63;2.40;;;;;;;19.64;58.35;100925.81;10172926;29;20045;-78
2023/08/10 19:28:47;;;;;;;6.25;1.98;;;;;;;19.41;57.27;100929.19;10182970;29;20051;-80
2023/08/10 19:33:49;;;;;;;6.35;2.10;;;;;;;19.37;57.43;100927.81;10177252;29;20044;-77
2023/08/10 19:38:52;;;;;;;5.72;2.72;;;;;;;19.50;58.41;100934.63;10164989;29;20087;-76
2023/08/10 19:43:56;;;;;;;4.22;2.50;;;;;;;19.43;58.04;100935.31;10169367;29;20040;-76
2023/08/10 19:48:59;;;;;;;4.18;2.72;;;;;;;19.34;57.81;100930.88;10174019;29;20043;-77
2023/08/10 19:54:03;;;;;;;5.53;2.67;;;;;;;19.45;58.76;100927.81;10176702;29;20050;-77
2023/08/10 19:59:08;;;;;;;3.95;2.53;;;;;;;19.46;59.29;100932.25;10173316;29;20577;-77
2023/08/10 20:04:11;;;;;;;2.97;2.30;;;;;;;19.48;59.60;100921.19;10171716;29;20040;-77
2023/08/10 20:09:14;;;;;;;4.60;2.75;;;;;;;19.27;57.58;100932.56;10176123;29;20051;-77
2023/08/10 20:14:18;;;;;;;8.50;3.55;;;;;;;19.04;57.92;100929.66;10174073;29;20420;-77
2023/08/10 20:19:23;;;;;;;5.47;2.58;;;;;;;19.12;58.35;100932.38;10173786;29;20036;-77
2023/08/10 20:24:27;;;;;;;2.78;2.30;;;;;;;19.19;59.96;100933.41;10181136;29;20055;-78
2023/08/10 20:29:31;;;;;;;7.95;2.63;;;;;;;19.26;59.95;100932.75;10179995;29;20534;-77
2023/08/10 20:34:34;;;;;;;5.35;2.90;;;;;;;19.22;58.77;100930.34;10167519;29;20040;-77
2023/08/10 20:39:37;;;;;;;2.65;2.35;;;;;;;19.29;59.33;100933.25;10164300;29;20516;-77
2023/08/10 20:44:41;;;;;;;4.30;2.55;;;;;;;19.31;59.13;100933.06;10176364;29;20068;-78
2023/08/10 20:49:44;;;;;;;4.35;2.53;;;;;;;19.29;58.81;100930.53;10165671;29;20039;-77
2023/08/10 20:54:47;;;;;;;4.60;3.08;;;;;;;19.35;58.76;100931.72;10175487;29;20049;-77
2023/08/10 20:59:51;;;;;;;6.00;3.10;;;;;;;19.31;58.20;100941.25;10174302;29;20135;-77
2023/08/10 21:04:54;;;;;;;3.15;2.85;;;;;;;19.14;59.17;100934.94;10175323;29;20409;-77
2023/08/10 21:09:57;;;;;;;5.88;2.97;;;;;;;19.02;60.32;100948.84;10165886;29;20108;-77
2023/08/10 21:15:07;;;;;;;7.38;3.22;;;;;;;19.07;60.56;100942.94;10164422;29;20044;-77
2023/08/10 21:20:11;;;;;;;4.97;3.00;;;;;;;19.12;60.57;100942.44;10162610;29;20049;-78
2023/08/10 21:25:14;;;;;;;8.02;2.90;;;;;;;19.03;61.54;100938.81;10162629;29;20043;-77
2023/08/10 21:30:18;;;;;;;7.63;2.80;;;;;;;19.13;61.32;100944.97;10158918;29;20130;-77
2023/08/10 21:35:21;;;;;;;3.72;2.67;;;;;;;19.11;61.72;100951.59;10166442;29;20682;-77
2023/08/10 21:40:24;;;;;;;3.35;2.85;;;;;;;19.05;61.70;100946.81;10165550;29;20044;-78
2023/08/10 21:45:28;;;;;;;6.97;3.13;;;;;;;19.02;61.58;100951.59;10163653;29;20051;-76
2023/08/10 21:50:31;;;;;;;3.55;2.60;;;;;;;19.02;62.15;100942.56;10164704;29;20051;-78
2023/08/10 21:55:34;;;;;;;8.18;3.50;;;;;;;19.04;61.59;100954.16;10170819;29;20514;-77
2023/08/10 22:00:38;;;;;;;6.00;3.58;;;;;;;19.06;61.27;100943.94;10171542;29;20053;-77
2023/08/10 22:05:41;;;;;;;8.27;3.33;;;;;;;19.01;61.36;100955.34;10173973;29;20067;-77
2023/08/10 22:10:44;;;;;;;6.43;3.03;;;;;;;18.87;62.30;100941.50;10171791;29;20092;-77
2023/08/10 22:15:48;;;;;;;5.43;3.00;;;;;;;18.91;62.87;100946.44;10169446;29;20064;-78
2023/08/10 22:20:51;;;;;;;7.70;3.40;;;;;;;18.95;63.08;100947.84;10165916;29;20051;-77
2023/08/10 22:25:54;;;;;;;8.05;3.33;;;;;;;18.79;62.76;100945.91;10167471;29;20044;-77
2023/08/10 22:30:58;;;;;;;6.55;3.17;;;;;;;18.77;63.11;100947.06;10157575;29;20060;-77
2023/08/10 22:36:01;;;;;;;6.32;3.63;;;;;;;18.77;62.58;100945.19;10166186;29;20129;-77
2023/08/10 22:41:04;;;;;;;5.63;3.25;;;;;;;18.75;62.79;100944.47;10156603;29;20064;-77
2023/08/10 22:46:08;;;;;;;5.97;3.63;;;;;;;18.75;63.04;100944.47;10154379;29;20051;-77
2023/08/10 22:51:12;;;;;;;6.10;3.72;;;;;;;18.63;63.38;100953.97;10146812;29;20089;-77
2023/08/10 22:56:14;;;;;;;10.48;4.45;;;;;;;18.26;64.53;100951.56;10148873;29;20119;-77
2023/08/10 23:01:19;;;;;;;6.38;3.60;;;;;;;18.34;64.26;100955.16;10148851;29;20048;-78
2023/08/10 23:06:22;;;;;;;4.50;3.20;;;;;;;18.27;64.81;100956.84;10153458;29;20048;-77
2023/08/10 23:11:25;;;;;;;7.18;4.03;;;;;;;18.19;65.52;100956.81;10154139;29;20095;-77
2023/08/10 23:16:29;;;;;;;10.27;3.75;;;;;;;17.82;66.06;100963.28;10151773;29;20491;-77